sensor_id;sensor_type;location;lat;lon;timestamp;P1;durP1;ratioP1;P2;durP2;ratioP2
47804;SDS011;33568;45.286;9.900;2022-07-04T00:00:28;9.32;;;5.88;;
47804;SDS011;33568;45.286;9.900;2022-07-04T00:02:55;11.23;;;6.68;;
47804;SDS011;33568;45.286;9.900;2022-07-04T00:05:21;8.30;;;5.97;;
47804;SDS011;33568;45.286;9.900;2022-07-04T00:07:48;10.90;;;6.18;;
47804;SDS011;33568;45.286;9.900;2022-07-04T00:10:18;9.90;;;6.45;;
47804;SDS011;33568;45.286;9.900;2022-07-04T00:12:46;10.15;;;5.82;;
47804;SDS011;33568;45.286;9.900;2022-07-04T00:15:13;10.00;;;6.82;;
47804;SDS011;33568;45.286;9.900;2022-07-04T00:17:40;12.50;;;7.55;;
47804;SDS011;33568;45.286;9.900;2022-07-04T00:20:07;9.55;;;5.53;;
47804;SDS011;33568;45.286;9.900;2022-07-04T00:22:35;8.68;;;6.90;;
47804;SDS011;33568;45.286;9.900;2022-07-04T00:25:02;12.90;;;7.70;;
47804;SDS011;33568;45.286;9.900;2022-07-04T00:27:28;8.88;;;5.80;;
47804;SDS011;33568;45.286;9.900;2022-07-04T00:29:55;13.27;;;7.28;;
47804;SDS011;33568;45.286;9.900;2022-07-04T00:32:22;7.65;;;6.20;;
47804;SDS011;33568;45.286;9.900;2022-07-04T00:34:49;11.45;;;8.88;;
47804;SDS011;33568;45.286;9.900;2022-07-04T00:37:16;10.50;;;6.15;;
47804;SDS011;33568;45.286;9.900;2022-07-04T00:39:42;8.70;;;5.97;;
47804;SDS011;33568;45.286;9.900;2022-07-04T00:42:09;16.73;;;12.48;;
47804;SDS011;33568;45.286;9.900;2022-07-04T00:44:36;8.80;;;7.88;;
47804;SDS011;33568;45.286;9.900;2022-07-04T00:47:03;12.35;;;9.02;;
47804;SDS011;33568;45.286;9.900;2022-07-04T00:49:31;9.82;;;7.72;;
47804;SDS011;33568;45.286;9.900;2022-07-04T00:51:58;10.32;;;6.90;;
47804;SDS011;33568;45.286;9.900;2022-07-04T00:54:26;12.35;;;5.97;;
47804;SDS011;33568;45.286;9.900;2022-07-04T00:56:55;12.48;;;6.30;;
47804;SDS011;33568;45.286;9.900;2022-07-04T00:59:22;15.20;;;9.20;;
47804;SDS011;33568;45.286;9.900;2022-07-04T01:01:49;12.60;;;7.68;;
47804;SDS011;33568;45.286;9.900;2022-07-04T01:04:16;11.57;;;5.82;;
47804;SDS011;33568;45.286;9.900;2022-07-04T01:06:43;13.02;;;8.20;;
47804;SDS011;33568;45.286;9.900;2022-07-04T01:09:13;21.10;;;12.65;;
47804;SDS011;33568;45.286;9.900;2022-07-04T01:11:40;16.77;;;12.50;;
47804;SDS011;33568;45.286;9.900;2022-07-04T01:14:06;13.90;;;10.25;;
47804;SDS011;33568;45.286;9.900;2022-07-04T01:16:33;10.32;;;5.65;;
47804;SDS011;33568;45.286;9.900;2022-07-04T01:19:00;12.40;;;8.25;;
47804;SDS011;33568;45.286;9.900;2022-07-04T01:21:26;9.07;;;7.78;;
47804;SDS011;33568;45.286;9.900;2022-07-04T01:23:53;9.77;;;5.40;;
47804;SDS011;33568;45.286;9.900;2022-07-04T01:26:19;7.85;;;6.18;;
47804;SDS011;33568;45.286;9.900;2022-07-04T01:28:47;5.75;;;5.15;;
47804;SDS011;33568;45.286;9.900;2022-07-04T01:31:13;11.35;;;4.97;;
47804;SDS011;33568;45.286;9.900;2022-07-04T01:33:40;6.03;;;5.10;;
47804;SDS011;33568;45.286;9.900;2022-07-04T01:36:06;7.88;;;5.60;;
47804;SDS011;33568;45.286;9.900;2022-07-04T01:38:32;8.70;;;5.15;;
47804;SDS011;33568;45.286;9.900;2022-07-04T01:40:59;7.85;;;5.60;;
47804;SDS011;33568;45.286;9.900;2022-07-04T01:43:25;11.07;;;7.07;;
47804;SDS011;33568;45.286;9.900;2022-07-04T01:45:52;9.90;;;7.15;;
47804;SDS011;33568;45.286;9.900;2022-07-04T01:48:18;7.57;;;5.13;;
47804;SDS011;33568;45.286;9.900;2022-07-04T01:50:44;11.35;;;8.38;;
47804;SDS011;33568;45.286;9.900;2022-07-04T01:53:11;9.68;;;6.90;;
47804;SDS011;33568;45.286;9.900;2022-07-04T01:55:37;12.48;;;8.20;;
47804;SDS011;33568;45.286;9.900;2022-07-04T01:58:04;7.72;;;5.88;;
47804;SDS011;33568;45.286;9.900;2022-07-04T02:00:30;10.05;;;7.55;;
47804;SDS011;33568;45.286;9.900;2022-07-04T02:03:17;6.93;;;5.15;;
47804;SDS011;33568;45.286;9.900;2022-07-04T02:05:44;8.30;;;5.82;;
47804;SDS011;33568;45.286;9.900;2022-07-04T02:08:10;6.47;;;5.18;;
47804;SDS011;33568;45.286;9.900;2022-07-04T02:10:37;6.18;;;4.90;;
47804;SDS011;33568;45.286;9.900;2022-07-04T02:13:04;7.05;;;5.63;;
47804;SDS011;33568;45.286;9.900;2022-07-04T02:15:31;8.65;;;5.07;;
47804;SDS011;33568;45.286;9.900;2022-07-04T02:18:05;8.00;;;5.90;;
47804;SDS011;33568;45.286;9.900;2022-07-04T02:20:34;7.40;;;5.60;;
47804;SDS011;33568;45.286;9.900;2022-07-04T02:23:01;7.53;;;4.93;;
47804;SDS011;33568;45.286;9.900;2022-07-04T02:25:30;7.90;;;4.78;;
47804;SDS011;33568;45.286;9.900;2022-07-04T02:27:57;7.65;;;6.18;;
47804;SDS011;33568;45.286;9.900;2022-07-04T02:30:23;6.65;;;5.40;;
47804;SDS011;33568;45.286;9.900;2022-07-04T02:32:50;6.40;;;4.50;;
47804;SDS011;33568;45.286;9.900;2022-07-04T02:35:17;7.32;;;4.95;;
47804;SDS011;33568;45.286;9.900;2022-07-04T02:37:44;10.77;;;5.03;;
47804;SDS011;33568;45.286;9.900;2022-07-04T02:40:10;7.50;;;5.22;;
47804;SDS011;33568;45.286;9.900;2022-07-04T02:42:37;7.22;;;5.15;;
47804;SDS011;33568;45.286;9.900;2022-07-04T02:45:04;7.43;;;6.28;;
47804;SDS011;33568;45.286;9.900;2022-07-04T02:47:31;9.93;;;5.75;;
47804;SDS011;33568;45.286;9.900;2022-07-04T02:49:59;9.35;;;6.82;;
47804;SDS011;33568;45.286;9.900;2022-07-04T02:52:28;6.68;;;5.50;;
47804;SDS011;33568;45.286;9.900;2022-07-04T02:54:55;10.43;;;5.70;;
47804;SDS011;33568;45.286;9.900;2022-07-04T02:57:21;11.63;;;4.97;;
47804;SDS011;33568;45.286;9.900;2022-07-04T02:59:48;13.20;;;5.10;;
47804;SDS011;33568;45.286;9.900;2022-07-04T03:02:14;7.25;;;5.82;;
47804;SDS011;33568;45.286;9.900;2022-07-04T03:04:42;7.00;;;4.32;;
47804;SDS011;33568;45.286;9.900;2022-07-04T03:07:09;7.18;;;4.85;;
47804;SDS011;33568;45.286;9.900;2022-07-04T03:09:35;5.88;;;4.57;;
47804;SDS011;33568;45.286;9.900;2022-07-04T03:12:02;9.93;;;5.15;;
47804;SDS011;33568;45.286;9.900;2022-07-04T03:14:28;11.77;;;6.80;;
47804;SDS011;33568;45.286;9.900;2022-07-04T03:16:55;5.95;;;4.68;;
47804;SDS011;33568;45.286;9.900;2022-07-04T03:19:22;9.20;;;5.32;;
47804;SDS011;33568;45.286;9.900;2022-07-04T03:21:49;14.73;;;5.40;;
47804;SDS011;33568;45.286;9.900;2022-07-04T03:24:17;5.50;;;4.68;;
47804;SDS011;33568;45.286;9.900;2022-07-04T03:26:44;9.13;;;5.03;;
47804;SDS011;33568;45.286;9.900;2022-07-04T03:29:11;8.43;;;4.53;;
47804;SDS011;33568;45.286;9.900;2022-07-04T03:31:37;9.90;;;5.15;;
47804;SDS011;33568;45.286;9.900;2022-07-04T03:34:04;6.85;;;5.00;;
47804;SDS011;33568;45.286;9.900;2022-07-04T03:36:30;9.27;;;5.30;;
47804;SDS011;33568;45.286;9.900;2022-07-04T03:38:58;7.53;;;4.55;;
47804;SDS011;33568;45.286;9.900;2022-07-04T03:41:25;6.72;;;4.35;;
47804;SDS011;33568;45.286;9.900;2022-07-04T03:43:51;10.45;;;5.28;;
47804;SDS011;33568;45.286;9.900;2022-07-04T03:46:17;9.95;;;4.97;;
47804;SDS011;33568;45.286;9.900;2022-07-04T03:48:44;7.57;;;4.68;;
47804;SDS011;33568;45.286;9.900;2022-07-04T03:51:11;10.68;;;4.72;;
47804;SDS011;33568;45.286;9.900;2022-07-04T03:53:38;8.20;;;5.43;;
47804;SDS011;33568;45.286;9.900;2022-07-04T03:56:05;8.95;;;5.25;;
47804;SDS011;33568;45.286;9.900;2022-07-04T03:58:34;18.67;;;12.40;;
47804;SDS011;33568;45.286;9.900;2022-07-04T04:01:00;20.83;;;13.45;;
47804;SDS011;33568;45.286;9.900;2022-07-04T04:03:27;28.52;;;14.18;;
47804;SDS011;33568;45.286;9.900;2022-07-04T04:06:13;24.60;;;14.40;;
47804;SDS011;33568;45.286;9.900;2022-07-04T04:08:39;22.60;;;14.52;;
47804;SDS011;33568;45.286;9.900;2022-07-04T04:11:06;21.33;;;13.52;;
47804;SDS011;33568;45.286;9.900;2022-07-04T04:13:33;26.10;;;16.35;;
47804;SDS011;33568;45.286;9.900;2022-07-04T04:16:00;25.45;;;14.35;;
47804;SDS011;33568;45.286;9.900;2022-07-04T04:18:26;19.05;;;13.88;;
47804;SDS011;33568;45.286;9.900;2022-07-04T04:20:53;22.58;;;14.00;;
47804;SDS011;33568;45.286;9.900;2022-07-04T04:23:20;19.17;;;12.80;;
47804;SDS011;33568;45.286;9.900;2022-07-04T04:25:46;15.57;;;11.10;;
47804;SDS011;33568;45.286;9.900;2022-07-04T04:28:15;19.63;;;12.45;;
47804;SDS011;33568;45.286;9.900;2022-07-04T04:30:42;21.27;;;13.15;;
47804;SDS011;33568;45.286;9.900;2022-07-04T04:33:08;16.13;;;12.90;;
47804;SDS011;33568;45.286;9.900;2022-07-04T04:35:35;23.08;;;11.85;;
47804;SDS011;33568;45.286;9.900;2022-07-04T04:38:01;16.25;;;10.50;;
47804;SDS011;33568;45.286;9.900;2022-07-04T04:40:28;15.75;;;11.60;;
47804;SDS011;33568;45.286;9.900;2022-07-04T04:42:55;21.98;;;9.75;;
47804;SDS011;33568;45.286;9.900;2022-07-04T04:45:22;20.80;;;10.00;;
47804;SDS011;33568;45.286;9.900;2022-07-04T04:47:49;18.85;;;10.55;;
47804;SDS011;33568;45.286;9.900;2022-07-04T04:50:16;14.48;;;9.50;;
47804;SDS011;33568;45.286;9.900;2022-07-04T04:52:42;19.45;;;11.05;;
47804;SDS011;33568;45.286;9.900;2022-07-04T04:55:08;11.88;;;10.38;;
47804;SDS011;33568;45.286;9.900;2022-07-04T04:57:35;18.35;;;10.15;;
47804;SDS011;33568;45.286;9.900;2022-07-04T05:00:03;17.23;;;10.00;;
47804;SDS011;33568;45.286;9.900;2022-07-04T05:02:30;16.42;;;7.28;;
47804;SDS011;33568;45.286;9.900;2022-07-04T05:04:57;8.38;;;6.93;;
47804;SDS011;33568;45.286;9.900;2022-07-04T05:07:24;15.23;;;7.75;;
47804;SDS011;33568;45.286;9.900;2022-07-04T05:09:50;11.13;;;6.90;;
47804;SDS011;33568;45.286;9.900;2022-07-04T05:12:23;9.80;;;6.45;;
47804;SDS011;33568;45.286;9.900;2022-07-04T05:14:51;8.95;;;7.15;;
47804;SDS011;33568;45.286;9.900;2022-07-04T05:17:19;18.75;;;6.53;;
47804;SDS011;33568;45.286;9.900;2022-07-04T05:19:48;12.02;;;6.05;;
47804;SDS011;33568;45.286;9.900;2022-07-04T05:22:14;13.68;;;5.63;;
47804;SDS011;33568;45.286;9.900;2022-07-04T05:24:41;11.23;;;4.72;;
47804;SDS011;33568;45.286;9.900;2022-07-04T05:27:08;8.93;;;3.63;;
47804;SDS011;33568;45.286;9.900;2022-07-04T05:29:35;9.48;;;4.30;;
47804;SDS011;33568;45.286;9.900;2022-07-04T05:32:05;6.10;;;3.92;;
47804;SDS011;33568;45.286;9.900;2022-07-04T05:34:32;13.70;;;3.90;;
47804;SDS011;33568;45.286;9.900;2022-07-04T05:36:59;9.50;;;3.22;;
47804;SDS011;33568;45.286;9.900;2022-07-04T05:39:26;12.32;;;3.67;;
47804;SDS011;33568;45.286;9.900;2022-07-04T05:41:53;5.47;;;3.30;;
47804;SDS011;33568;45.286;9.900;2022-07-04T05:44:19;8.18;;;3.70;;
47804;SDS011;33568;45.286;9.900;2022-07-04T05:46:49;12.80;;;4.45;;
47804;SDS011;33568;45.286;9.900;2022-07-04T05:49:15;12.02;;;3.42;;
47804;SDS011;33568;45.286;9.900;2022-07-04T05:51:42;8.73;;;2.88;;
47804;SDS011;33568;45.286;9.900;2022-07-04T05:54:08;10.88;;;3.35;;
47804;SDS011;33568;45.286;9.900;2022-07-04T05:56:35;13.13;;;3.90;;
47804;SDS011;33568;45.286;9.900;2022-07-04T05:59:03;9.18;;;3.03;;
47804;SDS011;33568;45.286;9.900;2022-07-04T06:01:29;15.95;;;3.30;;
47804;SDS011;33568;45.286;9.900;2022-07-04T06:03:56;52.05;;;5.80;;
47804;SDS011;33568;45.286;9.900;2022-07-04T06:06:22;15.70;;;3.67;;
47804;SDS011;33568;45.286;9.900;2022-07-04T06:08:49;12.38;;;4.20;;
47804;SDS011;33568;45.286;9.900;2022-07-04T06:11:15;8.23;;;3.20;;
47804;SDS011;33568;45.286;9.900;2022-07-04T06:13:43;7.20;;;3.20;;
47804;SDS011;33568;45.286;9.900;2022-07-04T06:16:10;16.65;;;3.75;;
47804;SDS011;33568;45.286;9.900;2022-07-04T06:18:36;5.60;;;2.88;;
47804;SDS011;33568;45.286;9.900;2022-07-04T06:21:03;9.88;;;3.10;;
47804;SDS011;33568;45.286;9.900;2022-07-04T06:23:34;10.70;;;2.80;;
47804;SDS011;33568;45.286;9.900;2022-07-04T06:26:00;10.55;;;2.85;;
47804;SDS011;33568;45.286;9.900;2022-07-04T06:28:27;9.65;;;3.10;;
47804;SDS011;33568;45.286;9.900;2022-07-04T06:30:53;9.07;;;2.97;;
47804;SDS011;33568;45.286;9.900;2022-07-04T06:33:20;5.07;;;2.80;;
47804;SDS011;33568;45.286;9.900;2022-07-04T06:35:46;13.75;;;2.88;;
47804;SDS011;33568;45.286;9.900;2022-07-04T06:38:24;3.78;;;2.50;;
47804;SDS011;33568;45.286;9.900;2022-07-04T06:40:55;6.95;;;2.53;;
47804;SDS011;33568;45.286;9.900;2022-07-04T06:43:23;6.20;;;2.58;;
47804;SDS011;33568;45.286;9.900;2022-07-04T06:45:51;8.32;;;2.88;;
47804;SDS011;33568;45.286;9.900;2022-07-04T06:48:18;4.65;;;2.70;;
47804;SDS011;33568;45.286;9.900;2022-07-04T06:50:45;6.88;;;2.63;;
47804;SDS011;33568;45.286;9.900;2022-07-04T06:53:11;3.58;;;2.60;;
47804;SDS011;33568;45.286;9.900;2022-07-04T06:55:39;4.80;;;2.47;;
47804;SDS011;33568;45.286;9.900;2022-07-04T06:58:06;19.05;;;3.40;;
47804;SDS011;33568;45.286;9.900;2022-07-04T07:00:34;10.77;;;2.78;;
47804;SDS011;33568;45.286;9.900;2022-07-04T07:03:01;9.32;;;3.10;;
47804;SDS011;33568;45.286;9.900;2022-07-04T07:05:29;7.40;;;2.85;;
47804;SDS011;33568;45.286;9.900;2022-07-04T07:07:57;8.40;;;3.63;;
47804;SDS011;33568;45.286;9.900;2022-07-04T07:10:24;5.60;;;3.40;;
47804;SDS011;33568;45.286;9.900;2022-07-04T07:12:50;7.20;;;2.90;;
47804;SDS011;33568;45.286;9.900;2022-07-04T07:15:17;8.98;;;3.85;;
47804;SDS011;33568;45.286;9.900;2022-07-04T07:17:46;9.70;;;6.88;;
47804;SDS011;33568;45.286;9.900;2022-07-04T07:20:13;6.80;;;2.80;;
47804;SDS011;33568;45.286;9.900;2022-07-04T07:22:40;8.63;;;4.97;;
47804;SDS011;33568;45.286;9.900;2022-07-04T07:25:08;6.93;;;4.10;;
47804;SDS011;33568;45.286;9.900;2022-07-04T07:27:36;8.68;;;5.00;;
47804;SDS011;33568;45.286;9.900;2022-07-04T07:30:04;9.02;;;6.78;;
47804;SDS011;33568;45.286;9.900;2022-07-04T07:32:31;9.55;;;6.13;;
47804;SDS011;33568;45.286;9.900;2022-07-04T07:34:58;19.50;;;11.23;;
47804;SDS011;33568;45.286;9.900;2022-07-04T07:37:25;13.50;;;8.70;;
47804;SDS011;33568;45.286;9.900;2022-07-04T07:39:52;12.02;;;9.65;;
47804;SDS011;33568;45.286;9.900;2022-07-04T07:42:18;31.13;;;11.05;;
47804;SDS011;33568;45.286;9.900;2022-07-04T07:44:46;23.27;;;8.90;;
47804;SDS011;33568;45.286;9.900;2022-07-04T07:47:13;21.67;;;10.35;;
47804;SDS011;33568;45.286;9.900;2022-07-04T07:49:39;10.50;;;7.20;;
47804;SDS011;33568;45.286;9.900;2022-07-04T07:52:06;15.98;;;7.40;;
47804;SDS011;33568;45.286;9.900;2022-07-04T07:54:33;15.48;;;6.35;;
47804;SDS011;33568;45.286;9.900;2022-07-04T07:57:00;15.30;;;7.32;;
47804;SDS011;33568;45.286;9.900;2022-07-04T07:59:27;15.35;;;4.32;;
47804;SDS011;33568;45.286;9.900;2022-07-04T08:01:53;8.40;;;4.70;;
47804;SDS011;33568;45.286;9.900;2022-07-04T08:04:20;9.02;;;4.65;;
47804;SDS011;33568;45.286;9.900;2022-07-04T08:07:02;6.50;;;3.90;;
47804;SDS011;33568;45.286;9.900;2022-07-04T08:09:35;5.68;;;3.92;;
47804;SDS011;33568;45.286;9.900;2022-07-04T08:12:03;10.90;;;3.88;;
47804;SDS011;33568;45.286;9.900;2022-07-04T08:14:30;8.85;;;4.50;;
47804;SDS011;33568;45.286;9.900;2022-07-04T08:16:58;4.70;;;3.40;;
47804;SDS011;33568;45.286;9.900;2022-07-04T08:19:25;15.35;;;4.18;;
47804;SDS011;33568;45.286;9.900;2022-07-04T08:21:52;8.32;;;3.38;;
47804;SDS011;33568;45.286;9.900;2022-07-04T08:24:20;9.02;;;3.28;;
47804;SDS011;33568;45.286;9.900;2022-07-04T08:26:46;7.13;;;3.33;;
47804;SDS011;33568;45.286;9.900;2022-07-04T08:29:13;9.88;;;3.70;;
47804;SDS011;33568;45.286;9.900;2022-07-04T08:31:40;6.53;;;3.20;;
47804;SDS011;33568;45.286;9.900;2022-07-04T08:34:07;8.57;;;4.03;;
47804;SDS011;33568;45.286;9.900;2022-07-04T08:36:35;5.72;;;3.33;;
47804;SDS011;33568;45.286;9.900;2022-07-04T08:39:01;5.00;;;3.20;;
47804;SDS011;33568;45.286;9.900;2022-07-04T08:41:38;16.35;;;3.53;;
47804;SDS011;33568;45.286;9.900;2022-07-04T08:44:07;8.90;;;3.28;;
47804;SDS011;33568;45.286;9.900;2022-07-04T08:46:40;6.97;;;3.42;;
47804;SDS011;33568;45.286;9.900;2022-07-04T08:49:14;8.05;;;3.55;;
47804;SDS011;33568;45.286;9.900;2022-07-04T08:51:52;15.50;;;3.85;;
47804;SDS011;33568;45.286;9.900;2022-07-04T08:54:27;6.72;;;3.50;;
47804;SDS011;33568;45.286;9.900;2022-07-04T08:57:14;8.43;;;3.40;;
47804;SDS011;33568;45.286;9.900;2022-07-04T09:00:06;9.82;;;3.53;;
47804;SDS011;33568;45.286;9.900;2022-07-04T09:02:34;24.42;;;3.95;;
47804;SDS011;33568;45.286;9.900;2022-07-04T09:05:03;8.95;;;3.20;;
47804;SDS011;33568;45.286;9.900;2022-07-04T09:07:32;10.73;;;4.90;;
47804;SDS011;33568;45.286;9.900;2022-07-04T09:09:58;8.93;;;3.30;;
47804;SDS011;33568;45.286;9.900;2022-07-04T09:12:25;11.93;;;3.80;;
47804;SDS011;33568;45.286;9.900;2022-07-04T09:14:52;8.73;;;3.67;;
47804;SDS011;33568;45.286;9.900;2022-07-04T09:17:21;8.20;;;3.72;;
47804;SDS011;33568;45.286;9.900;2022-07-04T09:20:31;9.18;;;3.72;;
47804;SDS011;33568;45.286;9.900;2022-07-04T09:22:40;7.07;;;3.75;;
47804;SDS011;33568;45.286;9.900;2022-07-04T09:25:07;13.73;;;4.35;;
47804;SDS011;33568;45.286;9.900;2022-07-04T09:27:35;12.77;;;3.60;;
47804;SDS011;33568;45.286;9.900;2022-07-04T09:30:03;10.43;;;3.45;;
47804;SDS011;33568;45.286;9.900;2022-07-04T09:32:41;8.32;;;3.72;;
47804;SDS011;33568;45.286;9.900;2022-07-04T09:37:51;8.85;;;5.45;;
47804;SDS011;33568;45.286;9.900;2022-07-04T09:42:57;22.38;;;6.70;;
47804;SDS011;33568;45.286;9.900;2022-07-04T09:45:26;9.98;;;5.28;;
47804;SDS011;33568;45.286;9.900;2022-07-04T09:47:55;19.92;;;6.97;;
47804;SDS011;33568;45.286;9.900;2022-07-04T09:50:27;14.95;;;6.45;;
47804;SDS011;33568;45.286;9.900;2022-07-04T09:52:57;18.55;;;6.82;;
47804;SDS011;33568;45.286;9.900;2022-07-04T09:55:29;20.27;;;7.20;;
47804;SDS011;33568;45.286;9.900;2022-07-04T09:58:03;13.30;;;6.35;;
47804;SDS011;33568;45.286;9.900;2022-07-04T10:00:31;16.02;;;5.63;;
47804;SDS011;33568;45.286;9.900;2022-07-04T10:06:03;16.08;;;4.60;;
47804;SDS011;33568;45.286;9.900;2022-07-04T10:08:34;14.27;;;4.75;;
47804;SDS011;33568;45.286;9.900;2022-07-04T10:11:02;10.45;;;4.88;;
47804;SDS011;33568;45.286;9.900;2022-07-04T10:13:29;11.50;;;4.88;;
47804;SDS011;33568;45.286;9.900;2022-07-04T10:15:56;19.83;;;5.45;;
47804;SDS011;33568;45.286;9.900;2022-07-04T10:18:23;12.80;;;5.28;;
47804;SDS011;33568;45.286;9.900;2022-07-04T10:20:52;14.70;;;5.47;;
47804;SDS011;33568;45.286;9.900;2022-07-04T10:23:20;13.80;;;6.03;;
47804;SDS011;33568;45.286;9.900;2022-07-04T10:25:48;25.70;;;6.78;;
47804;SDS011;33568;45.286;9.900;2022-07-04T10:28:17;15.20;;;5.18;;
47804;SDS011;33568;45.286;9.900;2022-07-04T10:30:50;15.13;;;5.28;;
47804;SDS011;33568;45.286;9.900;2022-07-04T10:33:25;19.33;;;5.15;;
47804;SDS011;33568;45.286;9.900;2022-07-04T10:35:54;8.70;;;4.75;;
47804;SDS011;33568;45.286;9.900;2022-07-04T10:51:31;12.70;;;5.18;;
47804;SDS011;33568;45.286;9.900;2022-07-04T10:59:12;6.82;;;4.05;;
47804;SDS011;33568;45.286;9.900;2022-07-04T11:01:39;12.32;;;4.80;;
47804;SDS011;33568;45.286;9.900;2022-07-04T11:04:43;13.23;;;5.97;;
47804;SDS011;33568;45.286;9.900;2022-07-04T11:07:12;9.60;;;5.85;;
47804;SDS011;33568;45.286;9.900;2022-07-04T11:09:38;11.82;;;6.80;;
47804;SDS011;33568;45.286;9.900;2022-07-04T11:12:06;16.52;;;5.55;;
47804;SDS011;33568;45.286;9.900;2022-07-04T11:14:39;10.90;;;5.43;;
47804;SDS011;33568;45.286;9.900;2022-07-04T11:17:28;12.30;;;5.00;;
47804;SDS011;33568;45.286;9.900;2022-07-04T11:20:03;18.50;;;5.80;;
47804;SDS011;33568;45.286;9.900;2022-07-04T11:22:32;15.93;;;4.88;;
47804;SDS011;33568;45.286;9.900;2022-07-04T11:24:59;8.32;;;5.00;;
47804;SDS011;33568;45.286;9.900;2022-07-04T11:27:26;10.73;;;5.25;;
47804;SDS011;33568;45.286;9.900;2022-07-04T11:29:53;13.73;;;5.43;;
47804;SDS011;33568;45.286;9.900;2022-07-04T11:32:20;9.90;;;4.90;;
47804;SDS011;33568;45.286;9.900;2022-07-04T11:34:55;13.15;;;4.43;;
47804;SDS011;33568;45.286;9.900;2022-07-04T11:37:22;10.82;;;4.85;;
47804;SDS011;33568;45.286;9.900;2022-07-04T11:39:51;10.13;;;6.00;;
47804;SDS011;33568;45.286;9.900;2022-07-04T11:42:19;12.65;;;5.30;;
47804;SDS011;33568;45.286;9.900;2022-07-04T11:45:05;11.23;;;4.43;;
47804;SDS011;33568;45.286;9.900;2022-07-04T11:50:02;12.00;;;5.43;;
47804;SDS011;33568;45.286;9.900;2022-07-04T11:55:04;11.63;;;4.78;;
47804;SDS011;33568;45.286;9.900;2022-07-04T11:57:38;10.60;;;4.25;;
47804;SDS011;33568;45.286;9.900;2022-07-04T12:00:17;9.73;;;4.30;;
47804;SDS011;33568;45.286;9.900;2022-07-04T12:02:46;7.45;;;3.65;;
47804;SDS011;33568;45.286;9.900;2022-07-04T12:05:13;10.82;;;4.45;;
47804;SDS011;33568;45.286;9.900;2022-07-04T12:07:45;13.52;;;4.90;;
47804;SDS011;33568;45.286;9.900;2022-07-04T12:10:15;11.07;;;4.43;;
47804;SDS011;33568;45.286;9.900;2022-07-04T12:15:22;7.65;;;3.88;;
47804;SDS011;33568;45.286;9.900;2022-07-04T12:17:53;11.85;;;4.80;;
47804;SDS011;33568;45.286;9.900;2022-07-04T12:20:24;12.00;;;4.15;;
47804;SDS011;33568;45.286;9.900;2022-07-04T12:28:05;28.48;;;7.60;;
47804;SDS011;33568;45.286;9.900;2022-07-04T12:30:34;11.70;;;4.18;;
47804;SDS011;33568;45.286;9.900;2022-07-04T12:33:02;7.75;;;3.58;;
47804;SDS011;33568;45.286;9.900;2022-07-04T12:35:34;16.67;;;3.85;;
47804;SDS011;33568;45.286;9.900;2022-07-04T12:38:05;8.93;;;3.47;;
47804;SDS011;33568;45.286;9.900;2022-07-04T12:40:34;7.43;;;3.03;;
47804;SDS011;33568;45.286;9.900;2022-07-04T12:43:01;11.18;;;3.20;;
47804;SDS011;33568;45.286;9.900;2022-07-04T12:46:01;9.52;;;3.13;;
47804;SDS011;33568;45.286;9.900;2022-07-04T12:48:22;12.23;;;3.17;;
47804;SDS011;33568;45.286;9.900;2022-07-04T12:50:53;12.48;;;3.30;;
47804;SDS011;33568;45.286;9.900;2022-07-04T12:53:36;4.65;;;2.65;;
47804;SDS011;33568;45.286;9.900;2022-07-04T12:56:08;9.85;;;3.10;;
47804;SDS011;33568;45.286;9.900;2022-07-04T12:58:35;10.68;;;3.25;;
47804;SDS011;33568;45.286;9.900;2022-07-04T13:01:02;9.85;;;2.80;;
47804;SDS011;33568;45.286;9.900;2022-07-04T13:03:29;8.48;;;2.72;;
47804;SDS011;33568;45.286;9.900;2022-07-04T13:05:55;8.00;;;2.90;;
47804;SDS011;33568;45.286;9.900;2022-07-04T13:08:23;26.35;;;2.97;;
47804;SDS011;33568;45.286;9.900;2022-07-04T13:10:49;13.55;;;3.10;;
47804;SDS011;33568;45.286;9.900;2022-07-04T13:13:36;8.07;;;2.67;;
47804;SDS011;33568;45.286;9.900;2022-07-04T13:16:03;6.32;;;2.83;;
47804;SDS011;33568;45.286;9.900;2022-07-04T13:18:29;8.73;;;3.35;;
47804;SDS011;33568;45.286;9.900;2022-07-04T13:20:57;11.85;;;3.47;;
47804;SDS011;33568;45.286;9.900;2022-07-04T13:23:24;8.38;;;2.65;;
47804;SDS011;33568;45.286;9.900;2022-07-04T13:25:52;6.28;;;2.72;;
47804;SDS011;33568;45.286;9.900;2022-07-04T13:28:18;8.98;;;3.00;;
47804;SDS011;33568;45.286;9.900;2022-07-04T13:30:45;5.25;;;2.67;;
47804;SDS011;33568;45.286;9.900;2022-07-04T13:33:12;11.82;;;3.17;;
47804;SDS011;33568;45.286;9.900;2022-07-04T13:35:40;9.75;;;3.28;;
47804;SDS011;33568;45.286;9.900;2022-07-04T13:38:07;13.70;;;3.80;;
47804;SDS011;33568;45.286;9.900;2022-07-04T13:40:34;19.25;;;3.38;;
47804;SDS011;33568;45.286;9.900;2022-07-04T13:43:01;8.00;;;2.75;;
47804;SDS011;33568;45.286;9.900;2022-07-04T13:45:35;6.70;;;2.50;;
47804;SDS011;33568;45.286;9.900;2022-07-04T13:48:02;7.82;;;2.30;;
47804;SDS011;33568;45.286;9.900;2022-07-04T13:50:29;7.57;;;2.45;;
47804;SDS011;33568;45.286;9.900;2022-07-04T13:52:55;6.30;;;2.40;;
47804;SDS011;33568;45.286;9.900;2022-07-04T13:55:21;7.30;;;2.45;;
47804;SDS011;33568;45.286;9.900;2022-07-04T13:57:48;7.20;;;2.90;;
47804;SDS011;33568;45.286;9.900;2022-07-04T14:00:15;6.07;;;2.70;;
47804;SDS011;33568;45.286;9.900;2022-07-04T14:02:42;7.47;;;2.20;;
47804;SDS011;33568;45.286;9.900;2022-07-04T14:05:10;9.35;;;2.10;;
47804;SDS011;33568;45.286;9.900;2022-07-04T14:07:40;8.95;;;2.47;;
47804;SDS011;33568;45.286;9.900;2022-07-04T14:10:07;10.75;;;3.13;;
47804;SDS011;33568;45.286;9.900;2022-07-04T14:12:34;8.32;;;2.42;;
47804;SDS011;33568;45.286;9.900;2022-07-04T14:15:01;9.60;;;2.55;;
47804;SDS011;33568;45.286;9.900;2022-07-04T14:17:29;4.63;;;2.45;;
47804;SDS011;33568;45.286;9.900;2022-07-04T14:19:55;12.23;;;2.38;;
47804;SDS011;33568;45.286;9.900;2022-07-04T14:22:21;7.22;;;2.65;;
47804;SDS011;33568;45.286;9.900;2022-07-04T14:24:48;6.32;;;2.20;;
47804;SDS011;33568;45.286;9.900;2022-07-04T14:27:14;18.95;;;2.55;;
47804;SDS011;33568;45.286;9.900;2022-07-04T14:29:41;5.72;;;2.38;;
47804;SDS011;33568;45.286;9.900;2022-07-04T14:32:07;4.32;;;2.28;;
47804;SDS011;33568;45.286;9.900;2022-07-04T14:34:34;13.00;;;3.33;;
47804;SDS011;33568;45.286;9.900;2022-07-04T14:37:00;9.30;;;2.35;;
47804;SDS011;33568;45.286;9.900;2022-07-04T14:39:27;6.20;;;1.92;;
47804;SDS011;33568;45.286;9.900;2022-07-04T14:41:53;5.40;;;2.30;;
47804;SDS011;33568;45.286;9.900;2022-07-04T14:44:20;4.00;;;2.22;;
47804;SDS011;33568;45.286;9.900;2022-07-04T14:46:49;4.88;;;2.42;;
47804;SDS011;33568;45.286;9.900;2022-07-04T14:49:16;11.95;;;2.70;;
47804;SDS011;33568;45.286;9.900;2022-07-04T14:51:43;6.70;;;2.20;;
47804;SDS011;33568;45.286;9.900;2022-07-04T14:54:09;5.65;;;2.00;;
47804;SDS011;33568;45.286;9.900;2022-07-04T14:56:36;5.20;;;2.13;;
47804;SDS011;33568;45.286;9.900;2022-07-04T14:59:03;5.35;;;2.15;;
47804;SDS011;33568;45.286;9.900;2022-07-04T15:01:30;4.95;;;2.17;;
47804;SDS011;33568;45.286;9.900;2022-07-04T15:03:57;9.07;;;2.30;;
47804;SDS011;33568;45.286;9.900;2022-07-04T15:06:24;5.75;;;2.28;;
47804;SDS011;33568;45.286;9.900;2022-07-04T15:08:51;2.65;;;1.83;;
47804;SDS011;33568;45.286;9.900;2022-07-04T15:11:18;4.90;;;2.47;;
47804;SDS011;33568;45.286;9.900;2022-07-04T15:13:46;7.63;;;2.28;;
47804;SDS011;33568;45.286;9.900;2022-07-04T15:16:13;5.45;;;2.10;;
47804;SDS011;33568;45.286;9.900;2022-07-04T15:18:40;7.95;;;2.42;;
47804;SDS011;33568;45.286;9.900;2022-07-04T15:21:06;7.90;;;2.00;;
47804;SDS011;33568;45.286;9.900;2022-07-04T15:23:52;7.80;;;2.27;;
47804;SDS011;33568;45.286;9.900;2022-07-04T15:26:38;6.22;;;2.42;;